sensor_id;sensor_type;location;lat;lon;timestamp;temperature;humidity
37782;DHT22;23621;50.878;4.584;2024-01-06T00:00:00;14.10;77.70
37782;DHT22;23621;50.878;4.584;2024-01-06T00:02:01;14.10;77.60
37782;DHT22;23621;50.878;4.584;2024-01-06T00:04:02;14.20;77.80
37782;DHT22;23621;50.878;4.584;2024-01-06T00:06:03;14.10;77.60
37782;DHT22;23621;50.878;4.584;2024-01-06T00:08:04;14.10;77.60
37782;DHT22;23621;50.878;4.584;2024-01-06T00:10:05;14.10;77.60
37782;DHT22;23621;50.878;4.584;2024-01-06T00:12:06;14.10;77.80
37782;DHT22;23621;50.878;4.584;2024-01-06T00:14:07;13.90;77.90
37782;DHT22;23621;50.878;4.584;2024-01-06T00:16:08;13.80;77.80
37782;DHT22;23621;50.878;4.584;2024-01-06T00:18:08;14.00;77.90
37782;DHT22;23621;50.878;4.584;2024-01-06T00:20:09;14.00;77.70
37782;DHT22;23621;50.878;4.584;2024-01-06T00:22:10;13.90;77.70
37782;DHT22;23621;50.878;4.584;2024-01-06T00:24:11;13.90;77.80
37782;DHT22;23621;50.878;4.584;2024-01-06T00:26:12;14.00;77.80
37782;DHT22;23621;50.878;4.584;2024-01-06T00:28:13;14.00;77.50
37782;DHT22;23621;50.878;4.584;2024-01-06T00:30:13;13.80;77.50
37782;DHT22;23621;50.878;4.584;2024-01-06T00:32:14;13.80;77.60
37782;DHT22;23621;50.878;4.584;2024-01-06T00:34:15;13.90;77.60
37782;DHT22;23621;50.878;4.584;2024-01-06T00:36:15;14.00;77.60
37782;DHT22;23621;50.878;4.584;2024-01-06T00:38:16;13.90;77.40
37782;DHT22;23621;50.878;4.584;2024-01-06T00:40:17;13.80;77.70
37782;DHT22;23621;50.878;4.584;2024-01-06T00:42:20;13.90;77.70
37782;DHT22;23621;50.878;4.584;2024-01-06T00:44:20;13.90;77.60
37782;DHT22;23621;50.878;4.584;2024-01-06T00:46:21;13.90;77.80
37782;DHT22;23621;50.878;4.584;2024-01-06T00:48:22;14.00;77.60
37782;DHT22;23621;50.878;4.584;2024-01-06T00:50:22;14.00;77.40
37782;DHT22;23621;50.878;4.584;2024-01-06T00:52:23;14.00;77.50
37782;DHT22;23621;50.878;4.584;2024-01-06T00:54:24;14.00;77.40
37782;DHT22;23621;50.878;4.584;2024-01-06T00:56:24;13.80;77.70
37782;DHT22;23621;50.878;4.584;2024-01-06T00:58:27;13.80;77.60
37782;DHT22;23621;50.878;4.584;2024-01-06T01:00:28;13.90;77.60
37782;DHT22;23621;50.878;4.584;2024-01-06T01:02:28;13.90;77.50
37782;DHT22;23621;50.878;4.584;2024-01-06T01:04:29;13.80;77.70
37782;DHT22;23621;50.878;4.584;2024-01-06T01:06:30;13.90;77.70
37782;DHT22;23621;50.878;4.584;2024-01-06T01:08:30;13.80;78.20
37782;DHT22;23621;50.878;4.584;2024-01-06T01:10:31;13.90;77.90
37782;DHT22;23621;50.878;4.584;2024-01-06T01:12:32;13.80;78.10
37782;DHT22;23621;50.878;4.584;2024-01-06T01:14:32;13.60;78.40
37782;DHT22;23621;50.878;4.584;2024-01-06T01:16:33;13.80;78.30
37782;DHT22;23621;50.878;4.584;2024-01-06T01:18:34;13.60;78.40
37782;DHT22;23621;50.878;4.584;2024-01-06T01:20:34;13.70;78.70
37782;DHT22;23621;50.878;4.584;2024-01-06T01:22:35;13.60;78.60
37782;DHT22;23621;50.878;4.584;2024-01-06T01:24:36;13.70;78.70
37782;DHT22;23621;50.878;4.584;2024-01-06T01:26:36;13.60;78.80
37782;DHT22;23621;50.878;4.584;2024-01-06T01:28:37;13.60;78.60
37782;DHT22;23621;50.878;4.584;2024-01-06T01:30:38;13.50;78.70
37782;DHT22;23621;50.878;4.584;2024-01-06T01:32:38;13.60;78.80
37782;DHT22;23621;50.878;4.584;2024-01-06T01:34:39;13.60;78.80
37782;DHT22;23621;50.878;4.584;2024-01-06T01:36:40;13.50;79.20
37782;DHT22;23621;50.878;4.584;2024-01-06T01:38:40;13.60;79.00
37782;DHT22;23621;50.878;4.584;2024-01-06T01:40:41;13.60;78.90
37782;DHT22;23621;50.878;4.584;2024-01-06T01:42:43;13.70;78.80
37782;DHT22;23621;50.878;4.584;2024-01-06T01:44:44;13.70;78.70
37782;DHT22;23621;50.878;4.584;2024-01-06T01:46:45;13.70;78.50
37782;DHT22;23621;50.878;4.584;2024-01-06T01:48:46;13.80;78.50
37782;DHT22;23621;50.878;4.584;2024-01-06T01:50:47;13.80;78.50
37782;DHT22;23621;50.878;4.584;2024-01-06T01:52:48;13.80;78.40
37782;DHT22;23621;50.878;4.584;2024-01-06T01:54:49;13.70;78.70
37782;DHT22;23621;50.878;4.584;2024-01-06T01:56:50;13.60;78.90
37782;DHT22;23621;50.878;4.584;2024-01-06T01:58:51;13.60;78.80
37782;DHT22;23621;50.878;4.584;2024-01-06T02:00:53;13.60;78.50
37782;DHT22;23621;50.878;4.584;2024-01-06T02:02:53;13.70;78.70
37782;DHT22;23621;50.878;4.584;2024-01-06T02:04:55;13.60;78.70
37782;DHT22;23621;50.878;4.584;2024-01-06T02:06:56;13.70;78.80
37782;DHT22;23621;50.878;4.584;2024-01-06T02:08:57;13.60;78.70
37782;DHT22;23621;50.878;4.584;2024-01-06T02:10:58;13.60;78.80
37782;DHT22;23621;50.878;4.584;2024-01-06T02:13:10;13.60;78.80
37782;DHT22;23621;50.878;4.584;2024-01-06T02:15:11;13.70;79.20
37782;DHT22;23621;50.878;4.584;2024-01-06T02:17:12;13.70;78.90
37782;DHT22;23621;50.878;4.584;2024-01-06T02:19:13;13.70;78.90
37782;DHT22;23621;50.878;4.584;2024-01-06T02:21:14;13.70;78.80
37782;DHT22;23621;50.878;4.584;2024-01-06T02:23:15;13.80;78.70
37782;DHT22;23621;50.878;4.584;2024-01-06T02:25:16;13.70;78.60
37782;DHT22;23621;50.878;4.584;2024-01-06T02:27:18;13.80;78.70
37782;DHT22;23621;50.878;4.584;2024-01-06T02:29:19;13.80;78.50
37782;DHT22;23621;50.878;4.584;2024-01-06T02:31:19;13.90;78.40
37782;DHT22;23621;50.878;4.584;2024-01-06T02:33:20;14.00;78.40
37782;DHT22;23621;50.878;4.584;2024-01-06T02:35:23;14.00;78.30
37782;DHT22;23621;50.878;4.584;2024-01-06T02:37:24;14.10;78.30
37782;DHT22;23621;50.878;4.584;2024-01-06T02:39:25;14.10;78.00
37782;DHT22;23621;50.878;4.584;2024-01-06T02:41:25;14.10;77.90
37782;DHT22;23621;50.878;4.584;2024-01-06T02:43:26;14.10;77.90
37782;DHT22;23621;50.878;4.584;2024-01-06T02:45:27;14.00;77.80
37782;DHT22;23621;50.878;4.584;2024-01-06T02:47:27;14.10;77.90
37782;DHT22;23621;50.878;4.584;2024-01-06T02:49:28;14.10;77.90
37782;DHT22;23621;50.878;4.584;2024-01-06T02:51:29;14.10;77.90
37782;DHT22;23621;50.878;4.584;2024-01-06T02:53:30;14.20;77.80
37782;DHT22;23621;50.878;4.584;2024-01-06T02:55:30;14.30;77.80
37782;DHT22;23621;50.878;4.584;2024-01-06T02:57:31;14.30;77.50
37782;DHT22;23621;50.878;4.584;2024-01-06T02:59:32;14.30;77.30
37782;DHT22;23621;50.878;4.584;2024-01-06T03:01:35;14.40;77.30
37782;DHT22;23621;50.878;4.584;2024-01-06T03:03:35;14.40;77.20
37782;DHT22;23621;50.878;4.584;2024-01-06T03:05:36;14.40;77.10
37782;DHT22;23621;50.878;4.584;2024-01-06T03:07:37;14.30;77.20
37782;DHT22;23621;50.878;4.584;2024-01-06T03:09:38;14.40;78.00
37782;DHT22;23621;50.878;4.584;2024-01-06T03:11:41;14.30;77.30
37782;DHT22;23621;50.878;4.584;2024-01-06T03:13:42;14.30;77.30
37782;DHT22;23621;50.878;4.584;2024-01-06T03:15:42;14.40;77.30
37782;DHT22;23621;50.878;4.584;2024-01-06T03:17:43;14.40;77.20
37782;DHT22;23621;50.878;4.584;2024-01-06T03:19:44;14.50;77.10
37782;DHT22;23621;50.878;4.584;2024-01-06T03:21:45;14.50;77.00
37782;DHT22;23621;50.878;4.584;2024-01-06T03:23:46;14.50;76.90
37782;DHT22;23621;50.878;4.584;2024-01-06T03:25:47;14.60;76.80
37782;DHT22;23621;50.878;4.584;2024-01-06T03:27:48;14.60;76.80
37782;DHT22;23621;50.878;4.584;2024-01-06T03:29:48;14.60;76.70
37782;DHT22;23621;50.878;4.584;2024-01-06T03:31:49;14.60;76.60
37782;DHT22;23621;50.878;4.584;2024-01-06T03:33:50;14.60;76.70
37782;DHT22;23621;50.878;4.584;2024-01-06T03:35:52;14.60;76.70
37782;DHT22;23621;50.878;4.584;2024-01-06T03:37:52;14.60;76.50
37782;DHT22;23621;50.878;4.584;2024-01-06T03:39:53;14.60;76.40
37782;DHT22;23621;50.878;4.584;2024-01-06T03:41:54;14.60;76.20
37782;DHT22;23621;50.878;4.584;2024-01-06T03:43:54;14.60;76.10
37782;DHT22;23621;50.878;4.584;2024-01-06T03:45:55;14.60;76.00
37782;DHT22;23621;50.878;4.584;2024-01-06T03:47:57;14.60;75.90
37782;DHT22;23621;50.878;4.584;2024-01-06T03:49:57;14.60;75.70
37782;DHT22;23621;50.878;4.584;2024-01-06T03:51:58;14.60;76.40
37782;DHT22;23621;50.878;4.584;2024-01-06T03:53:59;14.60;75.60
37782;DHT22;23621;50.878;4.584;2024-01-06T03:55:59;14.60;75.50
37782;DHT22;23621;50.878;4.584;2024-01-06T03:58:01;14.60;75.50
37782;DHT22;23621;50.878;4.584;2024-01-06T04:00:01;14.60;75.50
37782;DHT22;23621;50.878;4.584;2024-01-06T04:02:03;14.60;76.20
37782;DHT22;23621;50.878;4.584;2024-01-06T04:04:04;14.60;75.40
37782;DHT22;23621;50.878;4.584;2024-01-06T04:06:05;14.60;75.40
37782;DHT22;23621;50.878;4.584;2024-01-06T04:08:06;14.60;75.40
37782;DHT22;23621;50.878;4.584;2024-01-06T04:10:07;14.60;75.20
37782;DHT22;23621;50.878;4.584;2024-01-06T04:12:08;14.60;75.10
37782;DHT22;23621;50.878;4.584;2024-01-06T04:14:08;14.60;75.00
37782;DHT22;23621;50.878;4.584;2024-01-06T04:16:09;14.60;74.90
37782;DHT22;23621;50.878;4.584;2024-01-06T04:18:10;14.60;74.60
37782;DHT22;23621;50.878;4.584;2024-01-06T04:20:11;14.60;74.90
37782;DHT22;23621;50.878;4.584;2024-01-06T04:22:13;14.60;74.80
37782;DHT22;23621;50.878;4.584;2024-01-06T04:24:13;14.50;74.70
37782;DHT22;23621;50.878;4.584;2024-01-06T04:26:14;14.50;74.70
37782;DHT22;23621;50.878;4.584;2024-01-06T04:28:15;14.50;74.60
37782;DHT22;23621;50.878;4.584;2024-01-06T04:30:16;14.50;74.60
37782;DHT22;23621;50.878;4.584;2024-01-06T04:32:17;14.50;74.50
37782;DHT22;23621;50.878;4.584;2024-01-06T04:34:18;14.60;74.40
37782;DHT22;23621;50.878;4.584;2024-01-06T04:36:19;14.50;74.30
37782;DHT22;23621;50.878;4.584;2024-01-06T04:38:19;14.60;74.30
37782;DHT22;23621;50.878;4.584;2024-01-06T04:40:20;14.50;74.10
37782;DHT22;23621;50.878;4.584;2024-01-06T04:42:21;14.50;74.10
37782;DHT22;23621;50.878;4.584;2024-01-06T04:44:23;14.50;74.10
37782;DHT22;23621;50.878;4.584;2024-01-06T04:46:24;14.50;74.10
37782;DHT22;23621;50.878;4.584;2024-01-06T04:48:25;14.50;74.00
37782;DHT22;23621;50.878;4.584;2024-01-06T04:50:25;14.50;74.00
37782;DHT22;23621;50.878;4.584;2024-01-06T04:52:26;14.50;74.00
37782;DHT22;23621;50.878;4.584;2024-01-06T04:54:27;14.60;74.00
37782;DHT22;23621;50.878;4.584;2024-01-06T04:56:27;14.60;74.00
37782;DHT22;23621;50.878;4.584;2024-01-06T04:58:28;14.60;74.00
37782;DHT22;23621;50.878;4.584;2024-01-06T05:00:29;14.60;74.00
37782;DHT22;23621;50.878;4.584;2024-01-06T05:02:29;14.60;74.00
37782;DHT22;23621;50.878;4.584;2024-01-06T05:04:30;14.50;74.00
37782;DHT22;23621;50.878;4.584;2024-01-06T05:06:33;14.50;74.00
37782;DHT22;23621;50.878;4.584;2024-01-06T05:08:34;14.50;73.90
37782;DHT22;23621;50.878;4.584;2024-01-06T05:10:39;14.40;73.80
37782;DHT22;23621;50.878;4.584;2024-01-06T05:12:39;14.40;73.70
37782;DHT22;23621;50.878;4.584;2024-01-06T05:14:40;14.40;73.80
37782;DHT22;23621;50.878;4.584;2024-01-06T05:16:41;14.40;73.70
37782;DHT22;23621;50.878;4.584;2024-01-06T05:18:42;14.50;73.60
37782;DHT22;23621;50.878;4.584;2024-01-06T05:20:43;14.40;73.40
37782;DHT22;23621;50.878;4.584;2024-01-06T05:22:43;14.40;73.30
37782;DHT22;23621;50.878;4.584;2024-01-06T05:24:44;14.40;73.30
37782;DHT22;23621;50.878;4.584;2024-01-06T05:26:45;14.50;73.30
37782;DHT22;23621;50.878;4.584;2024-01-06T05:28:46;14.40;72.80
37782;DHT22;23621;50.878;4.584;2024-01-06T05:30:46;14.30;72.40
37782;DHT22;23621;50.878;4.584;2024-01-06T05:32:47;14.30;72.70
37782;DHT22;23621;50.878;4.584;2024-01-06T05:34:48;14.20;72.60
37782;DHT22;23621;50.878;4.584;2024-01-06T05:36:49;14.20;72.70
37782;DHT22;23621;50.878;4.584;2024-01-06T05:38:50;14.30;72.70
37782;DHT22;23621;50.878;4.584;2024-01-06T05:40:50;14.20;72.20
37782;DHT22;23621;50.878;4.584;2024-01-06T05:42:51;14.20;72.30
37782;DHT22;23621;50.878;4.584;2024-01-06T05:44:55;14.20;72.20
37782;DHT22;23621;50.878;4.584;2024-01-06T05:46:56;14.20;72.10
37782;DHT22;23621;50.878;4.584;2024-01-06T05:48:57;14.20;72.10
37782;DHT22;23621;50.878;4.584;2024-01-06T05:50:57;14.10;72.00
37782;DHT22;23621;50.878;4.584;2024-01-06T05:52:58;14.20;72.10
37782;DHT22;23621;50.878;4.584;2024-01-06T05:54:59;14.10;72.00
37782;DHT22;23621;50.878;4.584;2024-01-06T05:56:59;14.10;72.00
37782;DHT22;23621;50.878;4.584;2024-01-06T05:59:00;14.20;72.10
37782;DHT22;23621;50.878;4.584;2024-01-06T06:01:01;14.20;72.00
37782;DHT22;23621;50.878;4.584;2024-01-06T06:03:01;14.20;72.00
37782;DHT22;23621;50.878;4.584;2024-01-06T06:05:02;14.20;71.80
37782;DHT22;23621;50.878;4.584;2024-01-06T06:07:03;14.20;71.70
37782;DHT22;23621;50.878;4.584;2024-01-06T06:09:04;14.20;71.70
37782;DHT22;23621;50.878;4.584;2024-01-06T06:11:08;14.10;71.60
37782;DHT22;23621;50.878;4.584;2024-01-06T06:13:12;14.10;71.60
37782;DHT22;23621;50.878;4.584;2024-01-06T06:15:13;14.10;71.30
37782;DHT22;23621;50.878;4.584;2024-01-06T06:17:13;14.10;71.50
37782;DHT22;23621;50.878;4.584;2024-01-06T06:19:14;14.00;71.30
37782;DHT22;23621;50.878;4.584;2024-01-06T06:21:14;14.00;71.20
37782;DHT22;23621;50.878;4.584;2024-01-06T06:23:15;14.00;70.90
37782;DHT22;23621;50.878;4.584;2024-01-06T06:25:16;14.10;71.10
37782;DHT22;23621;50.878;4.584;2024-01-06T06:27:16;14.00;70.90
37782;DHT22;23621;50.878;4.584;2024-01-06T06:29:17;14.00;70.90
37782;DHT22;23621;50.878;4.584;2024-01-06T06:31:18;14.00;70.80
37782;DHT22;23621;50.878;4.584;2024-01-06T06:33:18;14.00;70.80
37782;DHT22;23621;50.878;4.584;2024-01-06T06:35:19;14.00;70.50
37782;DHT22;23621;50.878;4.584;2024-01-06T06:37:20;14.00;70.30
37782;DHT22;23621;50.878;4.584;2024-01-06T06:39:21;13.90;70.00
37782;DHT22;23621;50.878;4.584;2024-01-06T06:41:22;13.90;69.80
37782;DHT22;23621;50.878;4.584;2024-01-06T06:43:22;13.90;69.70
37782;DHT22;23621;50.878;4.584;2024-01-06T06:45:23;13.90;69.50
37782;DHT22;23621;50.878;4.584;2024-01-06T06:47:24;13.80;69.30
37782;DHT22;23621;50.878;4.584;2024-01-06T06:49:24;13.80;69.10
37782;DHT22;23621;50.878;4.584;2024-01-06T06:51:25;13.80;69.00
37782;DHT22;23621;50.878;4.584;2024-01-06T06:53:27;13.80;68.90
37782;DHT22;23621;50.878;4.584;2024-01-06T06:55:28;13.80;68.80
37782;DHT22;23621;50.878;4.584;2024-01-06T06:57:28;13.70;68.40
37782;DHT22;23621;50.878;4.584;2024-01-06T06:59:29;13.70;68.30
37782;DHT22;23621;50.878;4.584;2024-01-06T07:01:30;13.70;68.30
37782;DHT22;23621;50.878;4.584;2024-01-06T07:03:31;13.70;68.40
37782;DHT22;23621;50.878;4.584;2024-01-06T07:05:31;13.70;68.40
37782;DHT22;23621;50.878;4.584;2024-01-06T07:07:33;13.70;68.20
37782;DHT22;23621;50.878;4.584;2024-01-06T07:09:34;13.70;68.30
37782;DHT22;23621;50.878;4.584;2024-01-06T07:11:34;13.70;68.20
37782;DHT22;23621;50.878;4.584;2024-01-06T07:13:35;13.70;68.20
37782;DHT22;23621;50.878;4.584;2024-01-06T07:15:36;13.70;68.10
37782;DHT22;23621;50.878;4.584;2024-01-06T07:17:36;13.70;68.10
37782;DHT22;23621;50.878;4.584;2024-01-06T07:19:38;13.70;67.90
37782;DHT22;23621;50.878;4.584;2024-01-06T07:21:39;13.60;67.70
37782;DHT22;23621;50.878;4.584;2024-01-06T07:23:40;13.60;67.80
37782;DHT22;23621;50.878;4.584;2024-01-06T07:25:40;13.50;67.60
37782;DHT22;23621;50.878;4.584;2024-01-06T07:27:41;13.50;67.80
37782;DHT22;23621;50.878;4.584;2024-01-06T07:29:42;13.50;68.10
37782;DHT22;23621;50.878;4.584;2024-01-06T07:31:43;13.50;68.00
37782;DHT22;23621;50.878;4.584;2024-01-06T07:33:43;13.50;68.00
37782;DHT22;23621;50.878;4.584;2024-01-06T07:35:44;13.50;67.80
37782;DHT22;23621;50.878;4.584;2024-01-06T07:37:46;13.50;67.90
37782;DHT22;23621;50.878;4.584;2024-01-06T07:39:47;13.50;67.90
37782;DHT22;23621;50.878;4.584;2024-01-06T07:41:47;13.50;67.90
37782;DHT22;23621;50.878;4.584;2024-01-06T07:43:48;13.50;67.90
37782;DHT22;23621;50.878;4.584;2024-01-06T07:45:49;13.50;67.80
37782;DHT22;23621;50.878;4.584;2024-01-06T07:47:51;13.50;67.90
37782;DHT22;23621;50.878;4.584;2024-01-06T07:49:51;13.50;67.80
37782;DHT22;23621;50.878;4.584;2024-01-06T07:51:53;13.50;67.80
37782;DHT22;23621;50.878;4.584;2024-01-06T07:53:54;13.50;67.80
37782;DHT22;23621;50.878;4.584;2024-01-06T07:55:55;13.50;68.00
37782;DHT22;23621;50.878;4.584;2024-01-06T07:57:56;13.50;68.10
37782;DHT22;23621;50.878;4.584;2024-01-06T07:59:56;13.50;68.10
37782;DHT22;23621;50.878;4.584;2024-01-06T08:01:57;13.40;68.00
37782;DHT22;23621;50.878;4.584;2024-01-06T08:03:59;13.40;68.00
37782;DHT22;23621;50.878;4.584;2024-01-06T08:06:00;13.50;68.10
37782;DHT22;23621;50.878;4.584;2024-01-06T08:08:00;13.50;68.00
37782;DHT22;23621;50.878;4.584;2024-01-06T08:10:01;13.50;67.90
37782;DHT22;23621;50.878;4.584;2024-01-06T08:12:05;13.50;67.80
37782;DHT22;23621;50.878;4.584;2024-01-06T08:14:06;13.50;67.70
37782;DHT22;23621;50.878;4.584;2024-01-06T08:16:07;13.50;67.90
37782;DHT22;23621;50.878;4.584;2024-01-06T08:18:07;13.50;67.90
37782;DHT22;23621;50.878;4.584;2024-01-06T08:20:08;13.50;67.80
37782;DHT22;23621;50.878;4.584;2024-01-06T08:22:09;13.40;67.80
37782;DHT22;23621;50.878;4.584;2024-01-06T08:24:10;13.50;68.10
37782;DHT22;23621;50.878;4.584;2024-01-06T08:26:10;13.50;68.10
37782;DHT22;23621;50.878;4.584;2024-01-06T08:28:11;13.50;68.00
37782;DHT22;23621;50.878;4.584;2024-01-06T08:30:12;13.50;67.90
37782;DHT22;23621;50.878;4.584;2024-01-06T08:32:13;13.50;67.80
37782;DHT22;23621;50.878;4.584;2024-01-06T08:34:15;13.50;67.80
37782;DHT22;23621;50.878;4.584;2024-01-06T08:36:16;13.60;67.80
37782;DHT22;23621;50.878;4.584;2024-01-06T08:38:17;13.60;67.80
37782;DHT22;23621;50.878;4.584;2024-01-06T08:40:19;13.60;67.70
37782;DHT22;23621;50.878;4.584;2024-01-06T08:42:19;13.60;67.70
37782;DHT22;23621;50.878;4.584;2024-01-06T08:44:20;13.60;67.70
37782;DHT22;23621;50.878;4.584;2024-01-06T08:46:21;13.60;67.80
37782;DHT22;23621;50.878;4.584;2024-01-06T08:48:21;13.60;67.80
37782;DHT22;23621;50.878;4.584;2024-01-06T08:50:22;13.60;68.00
37782;DHT22;23621;50.878;4.584;2024-01-06T08:52:23;13.60;68.00
37782;DHT22;23621;50.878;4.584;2024-01-06T08:54:24;13.60;67.90
37782;DHT22;23621;50.878;4.584;2024-01-06T08:56:25;13.60;68.00
37782;DHT22;23621;50.878;4.584;2024-01-06T08:58:26;13.70;67.90
37782;DHT22;23621;50.878;4.584;2024-01-06T09:00:27;13.60;67.70
37782;DHT22;23621;50.878;4.584;2024-01-06T09:02:28;13.60;67.70
37782;DHT22;23621;50.878;4.584;2024-01-06T09:04:29;13.70;68.50
37782;DHT22;23621;50.878;4.584;2024-01-06T09:06:29;13.70;67.60
37782;DHT22;23621;50.878;4.584;2024-01-06T09:08:30;13.60;67.50
37782;DHT22;23621;50.878;4.584;2024-01-06T09:10:31;13.70;67.50
37782;DHT22;23621;50.878;4.584;2024-01-06T09:12:32;13.60;67.30
37782;DHT22;23621;50.878;4.584;2024-01-06T09:14:32;13.60;67.30
37782;DHT22;23621;50.878;4.584;2024-01-06T09:16:33;13.60;67.50
37782;DHT22;23621;50.878;4.584;2024-01-06T09:18:34;13.60;67.40
37782;DHT22;23621;50.878;4.584;2024-01-06T09:20:34;13.60;67.40
37782;DHT22;23621;50.878;4.584;2024-01-06T09:22:35;13.60;67.40
37782;DHT22;23621;50.878;4.584;2024-01-06T09:24:36;13.60;67.50
37782;DHT22;23621;50.878;4.584;2024-01-06T09:26:36;13.60;67.40
37782;DHT22;23621;50.878;4.584;2024-01-06T09:28:37;13.60;67.30
37782;DHT22;23621;50.878;4.584;2024-01-06T09:30:37;13.60;67.40
37782;DHT22;23621;50.878;4.584;2024-01-06T09:32:38;13.50;67.20
37782;DHT22;23621;50.878;4.584;2024-01-06T09:34:39;13.50;67.10
37782;DHT22;23621;50.878;4.584;2024-01-06T09:36:40;13.50;67.10
37782;DHT22;23621;50.878;4.584;2024-01-06T09:38:40;13.50;67.20
37782;DHT22;23621;50.878;4.584;2024-01-06T09:40:42;13.50;67.30
37782;DHT22;23621;50.878;4.584;2024-01-06T09:42:44;13.50;67.30
37782;DHT22;23621;50.878;4.584;2024-01-06T09:44:45;13.50;67.30
37782;DHT22;23621;50.878;4.584;2024-01-06T09:46:46;13.60;67.40
37782;DHT22;23621;50.878;4.584;2024-01-06T09:48:49;13.60;67.60
37782;DHT22;23621;50.878;4.584;2024-01-06T09:50:54;13.60;67.60
37782;DHT22;23621;50.878;4.584;2024-01-06T09:52:56;13.60;67.70
37782;DHT22;23621;50.878;4.584;2024-01-06T09:55:09;13.60;67.60
37782;DHT22;23621;50.878;4.584;2024-01-06T09:57:11;13.70;67.60
37782;DHT22;23621;50.878;4.584;2024-01-06T09:59:12;13.60;67.50
37782;DHT22;23621;50.878;4.584;2024-01-06T10:01:13;13.60;67.50
37782;DHT22;23621;50.878;4.584;2024-01-06T10:03:15;13.70;67.70
37782;DHT22;23621;50.878;4.584;2024-01-06T10:05:17;13.60;67.60
37782;DHT22;23621;50.878;4.584;2024-01-06T10:07:18;13.60;67.60
37782;DHT22;23621;50.878;4.584;2024-01-06T10:09:26;13.60;67.40
37782;DHT22;23621;50.878;4.584;2024-01-06T10:11:27;13.60;67.40
37782;DHT22;23621;50.878;4.584;2024-01-06T10:13:28;13.60;67.50
37782;DHT22;23621;50.878;4.584;2024-01-06T10:15:29;13.60;67.40
37782;DHT22;23621;50.878;4.584;2024-01-06T10:17:30;13.50;67.00
37782;DHT22;23621;50.878;4.584;2024-01-06T10:19:30;13.50;67.30
37782;DHT22;23621;50.878;4.584;2024-01-06T10:21:32;13.50;67.40
37782;DHT22;23621;50.878;4.584;2024-01-06T10:23:33;13.60;67.40
37782;DHT22;23621;50.878;4.584;2024-01-06T10:25:35;13.60;67.50
37782;DHT22;23621;50.878;4.584;2024-01-06T10:27:37;13.60;67.50
37782;DHT22;23621;50.878;4.584;2024-01-06T10:29:37;13.60;67.30
37782;DHT22;23621;50.878;4.584;2024-01-06T10:31:38;13.60;67.20
37782;DHT22;23621;50.878;4.584;2024-01-06T10:33:39;13.60;67.20
37782;DHT22;23621;50.878;4.584;2024-01-06T10:35:40;13.60;67.20
37782;DHT22;23621;50.878;4.584;2024-01-06T10:37:42;13.70;67.30
37782;DHT22;23621;50.878;4.584;2024-01-06T10:39:42;13.60;67.10
37782;DHT22;23621;50.878;4.584;2024-01-06T10:41:44;13.60;67.00
37782;DHT22;23621;50.878;4.584;2024-01-06T10:43:46;13.60;67.00
37782;DHT22;23621;50.878;4.584;2024-01-06T10:45:49;13.60;67.00
37782;DHT22;23621;50.878;4.584;2024-01-06T10:47:51;13.60;66.80
37782;DHT22;23621;50.878;4.584;2024-01-06T10:49:53;13.60;66.80
37782;DHT22;23621;50.878;4.584;2024-01-06T10:51:57;13.60;66.70
37782;DHT22;23621;50.878;4.584;2024-01-06T10:54:00;13.60;66.60
37782;DHT22;23621;50.878;4.584;2024-01-06T10:56:01;13.60;66.50
37782;DHT22;23621;50.878;4.584;2024-01-06T10:58:04;13.60;66.50
37782;DHT22;23621;50.878;4.584;2024-01-06T11:00:06;13.60;67.10
37782;DHT22;23621;50.878;4.584;2024-01-06T11:02:08;13.60;66.50
37782;DHT22;23621;50.878;4.584;2024-01-06T11:04:09;13.50;66.40
37782;DHT22;23621;50.878;4.584;2024-01-06T11:06:11;13.50;67.20
37782;DHT22;23621;50.878;4.584;2024-01-06T11:08:12;13.50;66.40
37782;DHT22;23621;50.878;4.584;2024-01-06T11:10:17;13.50;66.30
37782;DHT22;23621;50.878;4.584;2024-01-06T11:12:19;13.40;66.10
37782;DHT22;23621;50.878;4.584;2024-01-06T11:14:26;13.40;66.10
37782;DHT22;23621;50.878;4.584;2024-01-06T11:16:35;13.40;66.30
37782;DHT22;23621;50.878;4.584;2024-01-06T11:18:37;13.30;66.20
37782;DHT22;23621;50.878;4.584;2024-01-06T11:20:38;13.30;66.20
37782;DHT22;23621;50.878;4.584;2024-01-06T11:22:39;13.30;66.20
37782;DHT22;23621;50.878;4.584;2024-01-06T11:24:43;13.30;66.30
37782;DHT22;23621;50.878;4.584;2024-01-06T11:26:52;13.30;66.20
37782;DHT22;23621;50.878;4.584;2024-01-06T11:28:52;13.30;66.00
37782;DHT22;23621;50.878;4.584;2024-01-06T11:31:10;13.30;65.90
37782;DHT22;23621;50.878;4.584;2024-01-06T11:33:11;13.30;65.70
37782;DHT22;23621;50.878;4.584;2024-01-06T11:35:15;13.20;65.70
37782;DHT22;23621;50.878;4.584;2024-01-06T11:37:34;13.20;65.90
37782;DHT22;23621;50.878;4.584;2024-01-06T11:39:37;13.20;65.90
37782;DHT22;23621;50.878;4.584;2024-01-06T11:41:51;13.20;65.90
37782;DHT22;23621;50.878;4.584;2024-01-06T11:43:52;13.20;65.90
37782;DHT22;23621;50.878;4.584;2024-01-06T11:45:54;13.10;65.70
37782;DHT22;23621;50.878;4.584;2024-01-06T11:48:02;13.10;65.70
37782;DHT22;23621;50.878;4.584;2024-01-06T11:50:04;13.10;65.90
37782;DHT22;23621;50.878;4.584;2024-01-06T11:52:05;13.10;66.00
37782;DHT22;23621;50.878;4.584;2024-01-06T11:54:06;13.10;66.10
37782;DHT22;23621;50.878;4.584;2024-01-06T11:56:07;13.10;66.40
37782;DHT22;23621;50.878;4.584;2024-01-06T11:58:08;13.10;66.20
37782;DHT22;23621;50.878;4.584;2024-01-06T12:00:09;13.10;66.10
37782;DHT22;23621;50.878;4.584;2024-01-06T12:02:12;13.10;66.10
37782;DHT22;23621;50.878;4.584;2024-01-06T12:04:14;13.10;66.10
37782;DHT22;23621;50.878;4.584;2024-01-06T12:06:20;13.10;66.00
37782;DHT22;23621;50.878;4.584;2024-01-06T12:08:22;13.10;65.90
37782;DHT22;23621;50.878;4.584;2024-01-06T12:10:23;13.10;65.90
37782;DHT22;23621;50.878;4.584;2024-01-06T12:12:24;13.10;65.90
37782;DHT22;23621;50.878;4.584;2024-01-06T12:14:25;13.10;65.60
37782;DHT22;23621;50.878;4.584;2024-01-06T12:16:25;13.10;65.60
37782;DHT22;23621;50.878;4.584;2024-01-06T12:18:29;13.10;65.60
37782;DHT22;23621;50.878;4.584;2024-01-06T12:20:31;13.10;65.30
37782;DHT22;23621;50.878;4.584;2024-01-06T12:22:31;13.10;65.30
37782;DHT22;23621;50.878;4.584;2024-01-06T12:24:32;13.10;65.50
37782;DHT22;23621;50.878;4.584;2024-01-06T12:26:33;13.00;65.60
37782;DHT22;23621;50.878;4.584;2024-01-06T12:28:35;13.00;65.70
37782;DHT22;23621;50.878;4.584;2024-01-06T12:30:38;13.10;66.00
37782;DHT22;23621;50.878;4.584;2024-01-06T12:32:39;13.10;66.00
37782;DHT22;23621;50.878;4.584;2024-01-06T12:34:40;13.10;65.90
37782;DHT22;23621;50.878;4.584;2024-01-06T12:36:41;13.10;65.90
37782;DHT22;23621;50.878;4.584;2024-01-06T12:38:43;13.10;66.10
37782;DHT22;23621;50.878;4.584;2024-01-06T12:40:46;13.10;65.90
37782;DHT22;23621;50.878;4.584;2024-01-06T12:42:47;13.10;65.80
37782;DHT22;23621;50.878;4.584;2024-01-06T12:44:47;13.10;65.70